LAN436 SCIP-SEQM
Flight info
| Callsign | LAN436 |
|---|---|
| Flight time | N/A |
| Altitude | 35000 |
| Route | EROPI2J EROPI DCT 22S100W/N0480F370 16S092W 10S086W DCT URA/N0475F380 UM659 GYV UP533 PAMIS |
| Aircraft | B77W/H-SDE1E2E3FGHIJ2J3J4J5M1RWXY/LB1D1 |
Departure
| Time | 2026-04-21 14:41 |
|---|---|
| Airport | Mataveri International Airport (SCIP) |
Arrival
| Time | N/A |
|---|---|
| Airport | Mariscal Sucre International Airport (SEQM) |
| Time | Latitude | Longitude | Altitude | Speed | Heading |
|---|---|---|---|---|---|
| 2026-04-21 14:26 | -27.15981 | -109.42943 | 149 ft | 0 kts | 200° |
| 2026-04-21 14:27 | -27.15982 | -109.42944 | 149 ft | 1 kts | 200° |
| 2026-04-21 14:28 | -27.15992 | -109.42948 | 149 ft | 2 kts | 200° |
| 2026-04-21 14:28 | -27.16012 | -109.42956 | 149 ft | 4 kts | 200° |
| 2026-04-21 14:28 | -27.16035 | -109.42965 | 148 ft | 4 kts | 200° |
| 2026-04-21 14:28 | -27.16063 | -109.42976 | 149 ft | 4 kts | 200° |
| 2026-04-21 14:29 | -27.16090 | -109.42988 | 149 ft | 4 kts | 199° |
| 2026-04-21 14:29 | -27.16118 | -109.42999 | 149 ft | 4 kts | 199° |
| 2026-04-21 14:29 | -27.16146 | -109.43010 | 149 ft | 4 kts | 199° |
| 2026-04-21 14:29 | -27.16174 | -109.43021 | 149 ft | 4 kts | 199° |
| 2026-04-21 14:30 | -27.16201 | -109.43031 | 149 ft | 4 kts | 199° |
| 2026-04-21 14:30 | -27.16229 | -109.43042 | 149 ft | 4 kts | 199° |
| 2026-04-21 14:30 | -27.16257 | -109.43053 | 149 ft | 4 kts | 199° |
| 2026-04-21 14:30 | -27.15984 | -109.42951 | 149 ft | 0 kts | 198° |
| 2026-04-21 14:37 | -27.16008 | -109.42973 | 148 ft | 5 kts | 221° |
| 2026-04-21 14:37 | -27.16042 | -109.42998 | 148 ft | 6 kts | 210° |
| 2026-04-21 14:37 | -27.16085 | -109.43048 | 148 ft | 13 kts | 251° |
| 2026-04-21 14:37 | -27.16062 | -109.43142 | 147 ft | 13 kts | 297° |
| 2026-04-21 14:38 | -27.16017 | -109.43228 | 147 ft | 13 kts | 302° |
| 2026-04-21 14:38 | -27.15959 | -109.43335 | 145 ft | 21 kts | 300° |
| 2026-04-21 14:38 | -27.15887 | -109.43478 | 142 ft | 21 kts | 298° |
| 2026-04-21 14:38 | -27.15832 | -109.43574 | 143 ft | 9 kts | 329° |
| 2026-04-21 14:39 | -27.15780 | -109.43595 | 143 ft | 3 kts | 315° |
| 2026-04-21 14:39 | -27.15768 | -109.43623 | 143 ft | 5 kts | 295° |
| 2026-04-21 14:39 | -27.15769 | -109.43662 | 142 ft | 6 kts | 243° |
| 2026-04-21 14:39 | -27.15792 | -109.43681 | 142 ft | 2 kts | 209° |
| 2026-04-21 14:40 | -27.15807 | -109.43677 | 142 ft | 2 kts | 146° |
| 2026-04-21 14:40 | -27.15810 | -109.43670 | 142 ft | 0 kts | 115° |
| 2026-04-21 14:40 | -27.15827 | -109.43626 | 142 ft | 28 kts | 114° |
| 2026-04-21 14:40 | -27.16089 | -109.43043 | 148 ft | 138 kts | 117° |
| 2026-04-21 14:41 | -27.16631 | -109.41810 | 641 ft | 193 kts | 116° |
| 2026-04-21 14:41 | -27.17233 | -109.40515 | 2175 ft | 188 kts | 115° |
| 2026-04-21 14:41 | -27.17874 | -109.39079 | 3230 ft | 230 kts | 115° |
| 2026-04-21 14:41 | -27.18488 | -109.37253 | 4041 ft | 273 kts | 96° |
| 2026-04-21 14:42 | -27.18199 | -109.34979 | 4811 ft | 321 kts | 66° |
| 2026-04-21 14:42 | -27.16805 | -109.32899 | 5428 ft | 341 kts | 45° |
| 2026-04-21 14:42 | -27.15112 | -109.31059 | 6336 ft | 349 kts | 45° |
| 2026-04-21 14:42 | -27.13172 | -109.29495 | 7440 ft | 347 kts | 25° |
| 2026-04-21 14:43 | -27.10722 | -109.28743 | 7792 ft | 374 kts | 5° |
| 2026-04-21 14:43 | -27.08208 | -109.28656 | 8906 ft | 359 kts | 4° |
| 2026-04-21 14:43 | -27.05758 | -109.28732 | 10138 ft | 349 kts | 349° |
| 2026-04-21 14:43 | -27.03482 | -109.29569 | 11245 ft | 346 kts | 333° |
| 2026-04-21 14:44 | -27.01270 | -109.30868 | 11681 ft | 365 kts | 328° |
| 2026-04-21 14:44 | -26.99300 | -109.32618 | 12171 ft | 370 kts | 306° |
| 2026-04-21 14:44 | -26.98259 | -109.35178 | 13398 ft | 355 kts | 278° |
| 2026-04-21 14:44 | -26.98277 | -109.37864 | 14840 ft | 338 kts | 259° |
| 2026-04-21 14:45 | -26.99006 | -109.40293 | 16282 ft | 322 kts | 243° |
| 2026-04-21 14:45 | -27.00241 | -109.42329 | 17521 ft | 316 kts | 229° |
| 2026-04-21 14:45 | -27.01954 | -109.43898 | 18319 ft | 323 kts | 211° |
| 2026-04-21 14:45 | -27.04082 | -109.44777 | 18975 ft | 333 kts | 192° |
| 2026-04-21 14:46 | -27.06467 | -109.44829 | 19231 ft | 358 kts | 172° |
| 2026-04-21 14:46 | -27.08884 | -109.43851 | 19388 ft | 384 kts | 151° |
| 2026-04-21 14:46 | -27.11118 | -109.42047 | 19527 ft | 407 kts | 140° |
| 2026-04-21 14:46 | -27.13115 | -109.39690 | 19823 ft | 425 kts | 131° |
| 2026-04-21 14:47 | -27.14942 | -109.37029 | 20400 ft | 433 kts | 127° |
| 2026-04-21 14:47 | -27.16761 | -109.34299 | 21012 ft | 440 kts | 129° |
| 2026-04-21 14:47 | -27.18694 | -109.31613 | 21656 ft | 445 kts | 131° |
| 2026-04-21 14:47 | -27.20738 | -109.28981 | 22343 ft | 448 kts | 133° |
| 2026-04-21 14:48 | -27.22816 | -109.26363 | 23029 ft | 448 kts | 131° |
| 2026-04-21 14:48 | -27.24505 | -109.23387 | 23444 ft | 458 kts | 113° |
| 2026-04-21 14:48 | -27.25246 | -109.19893 | 23976 ft | 462 kts | 95° |
| 2026-04-21 14:48 | -27.25442 | -109.16286 | 24463 ft | 465 kts | 94° |
| 2026-04-21 14:49 | -27.25651 | -109.12659 | 24975 ft | 469 kts | 94° |
| 2026-04-21 14:49 | -27.25883 | -109.08988 | 25563 ft | 471 kts | 94° |
| 2026-04-21 14:49 | -27.26129 | -109.05310 | 26146 ft | 473 kts | 95° |
| 2026-04-21 14:49 | -27.26386 | -109.01604 | 26641 ft | 478 kts | 95° |
| 2026-04-21 14:50 | -27.26560 | -108.99130 | 26976 ft | 480 kts | 95° |
| 2026-04-21 14:50 | -27.26915 | -108.94112 | 27680 ft | 483 kts | 95° |
| 2026-04-21 14:50 | -27.27181 | -108.90343 | 28162 ft | 487 kts | 95° |
| 2026-04-21 14:50 | -27.27448 | -108.86535 | 28663 ft | 490 kts | 95° |
| 2026-04-21 14:51 | -27.27714 | -108.82718 | 29115 ft | 493 kts | 95° |
| 2026-04-21 14:51 | -27.27979 | -108.78904 | 29535 ft | 496 kts | 95° |
| 2026-04-21 14:51 | -27.28248 | -108.74999 | 30190 ft | 494 kts | 95° |
| 2026-04-21 14:51 | -27.28507 | -108.71231 | 30819 ft | 490 kts | 95° |
| 2026-04-21 14:52 | -27.28767 | -108.67422 | 31401 ft | 487 kts | 94° |
| 2026-04-21 14:52 | -27.29026 | -108.63634 | 31970 ft | 484 kts | 94° |
| 2026-04-21 14:52 | -27.29281 | -108.59871 | 32507 ft | 482 kts | 94° |
| 2026-04-21 14:52 | -27.29536 | -108.56111 | 32992 ft | 481 kts | 94° |
| 2026-04-21 14:53 | -27.29789 | -108.52360 | 33241 ft | 483 kts | 94° |
| 2026-04-21 14:53 | -27.30293 | -108.44823 | 33216 ft | 481 kts | 94° |
| 2026-04-21 14:54 | -27.30795 | -108.37273 | 33229 ft | 489 kts | 94° |
| 2026-04-21 14:54 | -27.30713 | -108.29670 | 33264 ft | 492 kts | 76° |
| 2026-04-21 14:54 | -27.29481 | -108.26091 | 33467 ft | 494 kts | 58° |
| 2026-04-21 14:55 | -27.27575 | -108.22894 | 33673 ft | 493 kts | 55° |
| 2026-04-21 14:55 | -27.25625 | -108.19719 | 33995 ft | 493 kts | 55° |
| 2026-04-21 14:55 | -27.23695 | -108.16543 | 34356 ft | 492 kts | 55° |
| 2026-04-21 14:55 | -27.21780 | -108.13355 | 34668 ft | 492 kts | 56° |
| 2026-04-21 14:56 | -27.19880 | -108.10159 | 34939 ft | 492 kts | 56° |
| 2026-04-21 14:56 | -27.17988 | -108.06958 | 35154 ft | 493 kts | 56° |
| 2026-04-21 14:56 | -27.16095 | -108.03744 | 35178 ft | 495 kts | 56° |
| 2026-04-21 14:57 | -27.12294 | -107.97282 | 35207 ft | 495 kts | 56° |
| 2026-04-21 14:57 | -27.08505 | -107.90855 | 35210 ft | 492 kts | 56° |
| 2026-04-21 14:58 | -27.04758 | -107.84509 | 35212 ft | 491 kts | 56° |
| 2026-04-21 14:58 | -27.00981 | -107.78128 | 35224 ft | 493 kts | 56° |
| 2026-04-21 14:59 | -26.97170 | -107.71700 | 35225 ft | 496 kts | 56° |
| 2026-04-21 14:59 | -26.93341 | -107.65249 | 35218 ft | 498 kts | 55° |
| 2026-04-21 15:00 | -26.89497 | -107.58784 | 35211 ft | 499 kts | 55° |
| 2026-04-21 15:00 | -26.85647 | -107.52315 | 35215 ft | 498 kts | 55° |
| 2026-04-21 15:01 | -26.81810 | -107.45876 | 35218 ft | 497 kts | 55° |
| 2026-04-21 15:01 | -26.77968 | -107.39441 | 35209 ft | 497 kts | 55° |
| 2026-04-21 15:02 | -26.74127 | -107.33016 | 35212 ft | 496 kts | 55° |
| 2026-04-21 15:02 | -26.70520 | -107.26992 | 35210 ft | 496 kts | 55° |
| 2026-04-21 15:03 | -26.66671 | -107.20571 | 35210 ft | 496 kts | 55° |
| 2026-04-21 15:03 | -26.62821 | -107.14157 | 35216 ft | 496 kts | 55° |
| 2026-04-21 15:04 | -26.58966 | -107.07744 | 35206 ft | 496 kts | 55° |
| 2026-04-21 15:04 | -26.55115 | -107.01350 | 35211 ft | 496 kts | 55° |
| 2026-04-21 15:05 | -26.51258 | -106.94952 | 35213 ft | 496 kts | 55° |
| 2026-04-21 15:05 | -26.45474 | -106.85374 | 35208 ft | 496 kts | 55° |
| 2026-04-21 15:06 | -26.41615 | -106.78998 | 35208 ft | 495 kts | 55° |
| 2026-04-21 15:06 | -26.37781 | -106.72670 | 35206 ft | 495 kts | 55° |
| 2026-04-21 15:07 | -26.33914 | -106.66297 | 35206 ft | 496 kts | 54° |
| 2026-04-21 15:07 | -26.30047 | -106.59930 | 35208 ft | 496 kts | 54° |
| 2026-04-21 15:08 | -26.26172 | -106.53560 | 35207 ft | 497 kts | 54° |
| 2026-04-21 15:08 | -26.22285 | -106.47180 | 35204 ft | 497 kts | 54° |
| 2026-04-21 15:09 | -26.18394 | -106.40805 | 35206 ft | 498 kts | 54° |
| 2026-04-21 15:09 | -26.14498 | -106.34429 | 35207 ft | 498 kts | 54° |
| 2026-04-21 15:10 | -26.10598 | -106.28054 | 35206 ft | 498 kts | 54° |
| 2026-04-21 15:10 | -26.06693 | -106.21678 | 35208 ft | 498 kts | 54° |
| 2026-04-21 15:11 | -26.02810 | -106.15349 | 35205 ft | 498 kts | 54° |
| 2026-04-21 15:11 | -25.98898 | -106.08981 | 35203 ft | 498 kts | 54° |
| 2026-04-21 15:12 | -25.94982 | -106.02617 | 35205 ft | 499 kts | 54° |
| 2026-04-21 15:12 | -25.91060 | -105.96251 | 35208 ft | 500 kts | 54° |
| 2026-04-21 15:13 | -25.87126 | -105.89874 | 35206 ft | 501 kts | 54° |
| 2026-04-21 15:13 | -25.83181 | -105.83488 | 35203 ft | 501 kts | 54° |
| 2026-04-21 15:14 | -25.79232 | -105.77103 | 35208 ft | 502 kts | 54° |
| 2026-04-21 15:14 | -25.75308 | -105.70767 | 35202 ft | 502 kts | 54° |
| 2026-04-21 15:15 | -25.71351 | -105.64389 | 35205 ft | 502 kts | 54° |
| 2026-04-21 15:15 | -25.67382 | -105.58001 | 35202 ft | 503 kts | 54° |
| 2026-04-21 15:16 | -25.63414 | -105.51619 | 35203 ft | 502 kts | 54° |
| 2026-04-21 15:16 | -25.59439 | -105.45236 | 35207 ft | 502 kts | 54° |
| 2026-04-21 15:17 | -25.55465 | -105.38864 | 35203 ft | 502 kts | 54° |
| 2026-04-21 15:17 | -25.51495 | -105.32508 | 35199 ft | 502 kts | 54° |
| 2026-04-21 15:18 | -25.47548 | -105.26197 | 35202 ft | 502 kts | 54° |
| 2026-04-21 15:18 | -25.43572 | -105.19848 | 35205 ft | 502 kts | 54° |
| 2026-04-21 15:19 | -25.39583 | -105.13487 | 35200 ft | 503 kts | 54° |
| 2026-04-21 15:19 | -25.35592 | -105.07130 | 35201 ft | 503 kts | 54° |
| 2026-04-21 15:20 | -25.31596 | -105.00774 | 35196 ft | 503 kts | 54° |
| 2026-04-21 15:20 | -25.28268 | -104.95488 | 35212 ft | 503 kts | 53° |
| 2026-04-21 15:21 | -25.23625 | -104.88121 | 35197 ft | 503 kts | 53° |
| 2026-04-21 15:21 | -25.19905 | -104.82229 | 35192 ft | 504 kts | 53° |
| 2026-04-21 15:22 | -25.16572 | -104.76956 | 35210 ft | 504 kts | 53° |
| 2026-04-21 15:22 | -25.12559 | -104.70612 | 35210 ft | 504 kts | 53° |
| 2026-04-21 15:23 | -25.08543 | -104.64274 | 35189 ft | 504 kts | 53° |
| 2026-04-21 15:23 | -25.04523 | -104.57937 | 35202 ft | 504 kts | 53° |
| 2026-04-21 15:24 | -25.00493 | -104.51594 | 35205 ft | 504 kts | 53° |
| 2026-04-21 15:24 | -24.96465 | -104.45261 | 35200 ft | 504 kts | 53° |
| 2026-04-21 15:25 | -24.92430 | -104.38926 | 35198 ft | 505 kts | 53° |
| 2026-04-21 15:25 | -24.88393 | -104.32596 | 35197 ft | 505 kts | 53° |
| 2026-04-21 15:26 | -24.84353 | -104.26271 | 35194 ft | 505 kts | 53° |
| 2026-04-21 15:26 | -24.80309 | -104.19946 | 35191 ft | 505 kts | 53° |
| 2026-04-21 15:27 | -24.76281 | -104.13656 | 35193 ft | 505 kts | 53° |
| 2026-04-21 15:27 | -24.72225 | -104.07330 | 35193 ft | 506 kts | 53° |
| 2026-04-21 15:28 | -24.68846 | -104.02066 | 35192 ft | 506 kts | 53° |
| 2026-04-21 15:28 | -24.65444 | -103.96773 | 35248 ft | 509 kts | 53° |
| 2026-04-21 15:29 | -24.63400 | -103.93594 | 35500 ft | 509 kts | 53° |
| 2026-04-21 15:29 | -24.61359 | -103.90422 | 35766 ft | 509 kts | 53° |
| 2026-04-21 15:29 | -24.59312 | -103.87244 | 35968 ft | 510 kts | 53° |
| 2026-04-21 15:29 | -24.57259 | -103.84058 | 36161 ft | 511 kts | 52° |
| 2026-04-21 15:30 | -24.55204 | -103.80872 | 36383 ft | 511 kts | 52° |
| 2026-04-21 15:30 | -24.53143 | -103.77676 | 36605 ft | 511 kts | 52° |
| 2026-04-21 15:30 | -24.51084 | -103.74487 | 36849 ft | 511 kts | 52° |
| 2026-04-21 15:30 | -24.49041 | -103.71325 | 37212 ft | 508 kts | 52° |
| 2026-04-21 15:31 | -24.44932 | -103.64972 | 37196 ft | 510 kts | 52° |
| 2026-04-21 15:31 | -24.40837 | -103.58647 | 37182 ft | 505 kts | 52° |
| 2026-04-21 15:32 | -24.36790 | -103.52403 | 37187 ft | 500 kts | 52° |
| 2026-04-21 15:32 | -24.32774 | -103.46220 | 37195 ft | 502 kts | 52° |
| 2026-04-21 15:33 | -24.28696 | -103.39950 | 37194 ft | 506 kts | 52° |
| 2026-04-21 15:33 | -24.24603 | -103.33662 | 37190 ft | 508 kts | 52° |
| 2026-04-21 15:34 | -24.20495 | -103.27358 | 37186 ft | 509 kts | 52° |
| 2026-04-21 15:34 | -24.16380 | -103.21051 | 37186 ft | 509 kts | 51° |
| 2026-04-21 15:35 | -24.12262 | -103.14747 | 37183 ft | 509 kts | 51° |
| 2026-04-21 15:35 | -24.08146 | -103.08455 | 37182 ft | 508 kts | 51° |
| 2026-04-21 15:36 | -24.04030 | -103.02172 | 37180 ft | 507 kts | 51° |
| 2026-04-21 15:36 | -23.99915 | -102.95897 | 37182 ft | 507 kts | 51° |
| 2026-04-21 15:37 | -23.95798 | -102.89629 | 37183 ft | 507 kts | 51° |
| 2026-04-21 15:37 | -23.91703 | -102.83402 | 37186 ft | 507 kts | 51° |
| 2026-04-21 15:38 | -23.87583 | -102.77142 | 37182 ft | 508 kts | 51° |
| 2026-04-21 15:38 | -23.83451 | -102.70875 | 37183 ft | 509 kts | 51° |
| 2026-04-21 15:39 | -23.79309 | -102.64599 | 37181 ft | 510 kts | 51° |
| 2026-04-21 15:39 | -23.75157 | -102.58316 | 37180 ft | 510 kts | 51° |
| 2026-04-21 15:40 | -23.70991 | -102.52019 | 37180 ft | 511 kts | 51° |
| 2026-04-21 15:40 | -23.66826 | -102.45731 | 37177 ft | 512 kts | 51° |
| 2026-04-21 15:41 | -23.62640 | -102.39421 | 37176 ft | 513 kts | 51° |
| 2026-04-21 15:41 | -23.58483 | -102.33162 | 37192 ft | 513 kts | 50° |
| 2026-04-21 15:42 | -23.54291 | -102.26858 | 37189 ft | 514 kts | 50° |
| 2026-04-21 15:42 | -23.50090 | -102.20547 | 37181 ft | 514 kts | 50° |
| 2026-04-21 15:43 | -23.45883 | -102.14236 | 37182 ft | 515 kts | 50° |
| 2026-04-21 15:43 | -23.41673 | -102.07928 | 37177 ft | 515 kts | 50° |
| 2026-04-21 15:44 | -23.37451 | -102.01610 | 37179 ft | 516 kts | 50° |
| 2026-04-21 15:44 | -23.33227 | -101.95297 | 37175 ft | 516 kts | 50° |
| 2026-04-21 15:45 | -23.28996 | -101.88981 | 37177 ft | 517 kts | 50° |
| 2026-04-21 15:45 | -23.24758 | -101.82662 | 37179 ft | 517 kts | 50° |
| 2026-04-21 15:46 | -23.20513 | -101.76342 | 37177 ft | 518 kts | 50° |
| 2026-04-21 15:46 | -23.16285 | -101.70054 | 37174 ft | 518 kts | 50° |
| 2026-04-21 15:47 | -23.12024 | -101.63725 | 37176 ft | 519 kts | 50° |
| 2026-04-21 15:47 | -23.07758 | -101.57395 | 37176 ft | 519 kts | 50° |
| 2026-04-21 15:48 | -23.03484 | -101.51062 | 37174 ft | 520 kts | 50° |
| 2026-04-21 15:48 | -22.99196 | -101.44715 | 37176 ft | 521 kts | 50° |
| 2026-04-21 15:49 | -22.94912 | -101.38383 | 37175 ft | 521 kts | 50° |
| 2026-04-21 15:49 | -22.90615 | -101.32040 | 37174 ft | 522 kts | 49° |
| 2026-04-21 15:50 | -22.86358 | -101.25762 | 37182 ft | 522 kts | 49° |
| 2026-04-21 15:50 | -22.82075 | -101.19454 | 37177 ft | 523 kts | 49° |
| 2026-04-21 15:51 | -22.77763 | -101.13111 | 37179 ft | 523 kts | 49° |
| 2026-04-21 15:51 | -22.73443 | -101.06764 | 37177 ft | 523 kts | 49° |
| 2026-04-21 15:52 | -22.69118 | -101.00417 | 37176 ft | 524 kts | 49° |
| 2026-04-21 15:52 | -22.64790 | -100.94074 | 37176 ft | 524 kts | 49° |
| 2026-04-21 15:53 | -22.60454 | -100.87726 | 37174 ft | 524 kts | 49° |
| 2026-04-21 15:53 | -22.56114 | -100.81382 | 37175 ft | 525 kts | 49° |
| 2026-04-21 15:54 | -22.51762 | -100.75026 | 37181 ft | 526 kts | 49° |
| 2026-04-21 15:54 | -22.47403 | -100.68668 | 37176 ft | 526 kts | 49° |
| 2026-04-21 15:55 | -22.43038 | -100.62309 | 37171 ft | 526 kts | 49° |
| 2026-04-21 15:55 | -22.38670 | -100.55951 | 37175 ft | 527 kts | 49° |
| 2026-04-21 15:56 | -22.34320 | -100.49630 | 37172 ft | 527 kts | 49° |
| 2026-04-21 15:56 | -22.29937 | -100.43267 | 37165 ft | 528 kts | 49° |
| 2026-04-21 15:57 | -22.25549 | -100.36905 | 37179 ft | 528 kts | 49° |
| 2026-04-21 15:57 | -22.21156 | -100.30542 | 37160 ft | 529 kts | 49° |
| 2026-04-21 15:58 | -22.16754 | -100.24175 | 37173 ft | 529 kts | 49° |
| 2026-04-21 15:58 | -22.12349 | -100.17808 | 37175 ft | 530 kts | 49° |
| 2026-04-21 15:59 | -22.07932 | -100.11434 | 37175 ft | 530 kts | 49° |
| 2026-04-21 15:59 | -22.03511 | -100.05060 | 37168 ft | 531 kts | 49° |
| 2026-04-21 16:00 | -21.99111 | -99.98725 | 37172 ft | 531 kts | 49° |
| 2026-04-21 16:00 | -21.94656 | -99.92364 | 37169 ft | 532 kts | 48° |
| 2026-04-21 16:01 | -21.90188 | -99.86009 | 37172 ft | 532 kts | 49° |
| 2026-04-21 16:01 | -21.85717 | -99.79652 | 37167 ft | 532 kts | 49° |
| 2026-04-21 16:02 | -21.81245 | -99.73293 | 37166 ft | 533 kts | 49° |
| 2026-04-21 16:02 | -21.76766 | -99.66931 | 37163 ft | 533 kts | 48° |
| 2026-04-21 16:03 | -21.72279 | -99.60564 | 37171 ft | 534 kts | 48° |
| 2026-04-21 16:03 | -21.67815 | -99.54237 | 37163 ft | 534 kts | 48° |
| 2026-04-21 16:04 | -21.63317 | -99.47871 | 37167 ft | 535 kts | 48° |
| 2026-04-21 16:04 | -21.58810 | -99.41499 | 37175 ft | 536 kts | 48° |
| 2026-04-21 16:05 | -21.54297 | -99.35126 | 37170 ft | 536 kts | 48° |
| 2026-04-21 16:05 | -21.49773 | -99.28745 | 37169 ft | 537 kts | 48° |
| 2026-04-21 16:06 | -21.45243 | -99.22362 | 37166 ft | 537 kts | 48° |
| 2026-04-21 16:06 | -21.40703 | -99.15973 | 37169 ft | 537 kts | 48° |
| 2026-04-21 16:07 | -21.36162 | -99.09590 | 37167 ft | 538 kts | 48° |
| 2026-04-21 16:07 | -21.31618 | -99.03210 | 37168 ft | 538 kts | 48° |
| 2026-04-21 16:08 | -21.24826 | -98.93689 | 37164 ft | 539 kts | 48° |
| 2026-04-21 16:09 | -21.20272 | -98.87312 | 37159 ft | 539 kts | 49° |
| 2026-04-21 16:09 | -21.15708 | -98.80930 | 37166 ft | 539 kts | 48° |
| 2026-04-21 16:10 | -21.11882 | -98.75585 | 37168 ft | 540 kts | 49° |
| 2026-04-21 16:10 | -21.07333 | -98.69237 | 37161 ft | 540 kts | 49° |
| 2026-04-21 16:11 | -21.02748 | -98.62846 | 37165 ft | 540 kts | 49° |
| 2026-04-21 16:11 | -20.98163 | -98.56462 | 37166 ft | 541 kts | 49° |
| 2026-04-21 16:12 | -20.93572 | -98.50077 | 37165 ft | 541 kts | 49° |
| 2026-04-21 16:12 | -20.88983 | -98.43701 | 37165 ft | 541 kts | 49° |
| 2026-04-21 16:13 | -20.84412 | -98.37359 | 37164 ft | 542 kts | 49° |
| 2026-04-21 16:13 | -20.79807 | -98.30976 | 37164 ft | 542 kts | 49° |
| 2026-04-21 16:14 | -20.75198 | -98.24595 | 37166 ft | 542 kts | 49° |
| 2026-04-21 16:14 | -20.70582 | -98.18211 | 37168 ft | 542 kts | 49° |
| 2026-04-21 16:15 | -20.65967 | -98.11835 | 37164 ft | 542 kts | 49° |
| 2026-04-21 16:15 | -20.61355 | -98.05471 | 37163 ft | 542 kts | 49° |
| 2026-04-21 16:16 | -20.56731 | -97.99098 | 37163 ft | 542 kts | 49° |
| 2026-04-21 16:16 | -20.52136 | -97.92771 | 37162 ft | 542 kts | 49° |
| 2026-04-21 16:17 | -20.48263 | -97.87444 | 37164 ft | 542 kts | 49° |
| 2026-04-21 16:17 | -20.43707 | -97.81184 | 37160 ft | 542 kts | 49° |
| 2026-04-21 16:18 | -20.39084 | -97.74838 | 37165 ft | 542 kts | 49° |
| 2026-04-21 16:18 | -20.34447 | -97.68480 | 37161 ft | 542 kts | 49° |
| 2026-04-21 16:19 | -20.29812 | -97.62133 | 37164 ft | 542 kts | 49° |
| 2026-04-21 16:19 | -20.25177 | -97.55792 | 37162 ft | 543 kts | 49° |
| 2026-04-21 16:20 | -20.20540 | -97.49455 | 37164 ft | 543 kts | 49° |
| 2026-04-21 16:20 | -20.15928 | -97.43160 | 37158 ft | 543 kts | 49° |
| 2026-04-21 16:21 | -20.11277 | -97.36817 | 37161 ft | 543 kts | 49° |
| 2026-04-21 16:21 | -20.06632 | -97.30490 | 37158 ft | 543 kts | 49° |
| 2026-04-21 16:22 | -20.01983 | -97.24165 | 37162 ft | 543 kts | 49° |
| 2026-04-21 16:22 | -19.97334 | -97.17845 | 37159 ft | 543 kts | 49° |
| 2026-04-21 16:23 | -19.92675 | -97.11519 | 37162 ft | 542 kts | 49° |
| 2026-04-21 16:23 | -19.88013 | -97.05197 | 37155 ft | 542 kts | 49° |
| 2026-04-21 16:24 | -19.83391 | -96.98934 | 37159 ft | 542 kts | 49° |
| 2026-04-21 16:24 | -19.78724 | -96.92618 | 37156 ft | 542 kts | 49° |
| 2026-04-21 16:25 | -19.74062 | -96.86315 | 37156 ft | 542 kts | 49° |
| 2026-04-21 16:25 | -19.69405 | -96.80025 | 37155 ft | 542 kts | 49° |
| 2026-04-21 16:26 | -19.64734 | -96.73723 | 37154 ft | 542 kts | 49° |
| 2026-04-21 16:26 | -19.60069 | -96.67437 | 37158 ft | 542 kts | 49° |
| 2026-04-21 16:27 | -19.55434 | -96.61196 | 37163 ft | 542 kts | 49° |
| 2026-04-21 16:27 | -19.50766 | -96.54917 | 37158 ft | 542 kts | 49° |
| 2026-04-21 16:28 | -19.46099 | -96.48647 | 37149 ft | 542 kts | 49° |
| 2026-04-21 16:28 | -19.41428 | -96.42378 | 37158 ft | 542 kts | 49° |
| 2026-04-21 16:29 | -19.36747 | -96.36102 | 37149 ft | 542 kts | 49° |
| 2026-04-21 16:29 | -19.32078 | -96.29848 | 37156 ft | 542 kts | 49° |
| 2026-04-21 16:30 | -19.27401 | -96.23590 | 37155 ft | 541 kts | 49° |
| 2026-04-21 16:30 | -19.22746 | -96.17368 | 37154 ft | 541 kts | 49° |
| 2026-04-21 16:31 | -19.18066 | -96.11119 | 37157 ft | 541 kts | 49° |
| 2026-04-21 16:31 | -19.14180 | -96.05936 | 37151 ft | 541 kts | 49° |
| 2026-04-21 16:32 | -19.09495 | -95.99692 | 37152 ft | 541 kts | 49° |
| 2026-04-21 16:32 | -19.04813 | -95.93458 | 37155 ft | 542 kts | 49° |
| 2026-04-21 16:33 | -19.00106 | -95.87200 | 37160 ft | 550 kts | 49° |
| 2026-04-21 16:33 | -18.95321 | -95.80843 | 37161 ft | 554 kts | 49° |
| 2026-04-21 16:34 | -18.90505 | -95.74450 | 37155 ft | 557 kts | 49° |
| 2026-04-21 16:34 | -18.85678 | -95.68048 | 37148 ft | 558 kts | 49° |
| 2026-04-21 16:35 | -18.80844 | -95.61643 | 37142 ft | 557 kts | 49° |
| 2026-04-21 16:35 | -18.76014 | -95.55250 | 37143 ft | 555 kts | 49° |
| 2026-04-21 16:36 | -18.71235 | -95.48932 | 37140 ft | 553 kts | 49° |
| 2026-04-21 16:36 | -18.66443 | -95.42604 | 37139 ft | 551 kts | 49° |
| 2026-04-21 16:37 | -18.61661 | -95.36296 | 37144 ft | 549 kts | 49° |
| 2026-04-21 16:37 | -18.56890 | -95.30009 | 37146 ft | 548 kts | 49° |
| 2026-04-21 16:38 | -18.52124 | -95.23734 | 37148 ft | 548 kts | 49° |
| 2026-04-21 16:38 | -18.47356 | -95.17462 | 37143 ft | 548 kts | 49° |
| 2026-04-21 16:39 | -18.42586 | -95.11195 | 37146 ft | 548 kts | 49° |
| 2026-04-21 16:39 | -18.37809 | -95.04925 | 37143 ft | 549 kts | 49° |
| 2026-04-21 16:40 | -18.33005 | -94.98626 | 37145 ft | 555 kts | 48° |
| 2026-04-21 16:40 | -18.28165 | -94.92289 | 37152 ft | 563 kts | 48° |
| 2026-04-21 16:41 | -18.24037 | -94.86886 | 37145 ft | 566 kts | 48° |
| 2026-04-21 16:41 | -18.18292 | -94.79370 | 37141 ft | 568 kts | 48° |
| 2026-04-21 16:42 | -18.13338 | -94.72896 | 37137 ft | 567 kts | 48° |
| 2026-04-21 16:42 | -18.08397 | -94.66448 | 37133 ft | 565 kts | 48° |
| 2026-04-21 16:43 | -18.03471 | -94.60026 | 37134 ft | 563 kts | 48° |
| 2026-04-21 16:43 | -17.98595 | -94.53676 | 37136 ft | 561 kts | 48° |
| 2026-04-21 16:44 | -17.93701 | -94.47310 | 37133 ft | 560 kts | 48° |
| 2026-04-21 16:44 | -17.88804 | -94.40945 | 37136 ft | 559 kts | 48° |
| 2026-04-21 16:45 | -17.83915 | -94.34597 | 37140 ft | 559 kts | 48° |
| 2026-04-21 16:45 | -17.79024 | -94.28252 | 37140 ft | 559 kts | 48° |
| 2026-04-21 16:46 | -17.74130 | -94.21910 | 37133 ft | 559 kts | 48° |
| 2026-04-21 16:46 | -17.69230 | -94.15566 | 37136 ft | 560 kts | 48° |
| 2026-04-21 16:47 | -17.64350 | -94.09253 | 37129 ft | 560 kts | 48° |
| 2026-04-21 16:47 | -17.59436 | -94.02903 | 37136 ft | 561 kts | 48° |
| 2026-04-21 16:48 | -17.54510 | -93.96544 | 37136 ft | 561 kts | 48° |
| 2026-04-21 16:48 | -17.49588 | -93.90194 | 37134 ft | 561 kts | 48° |
| 2026-04-21 16:49 | -17.45483 | -93.84905 | 37129 ft | 561 kts | 48° |
| 2026-04-21 16:49 | -17.40555 | -93.78560 | 37133 ft | 561 kts | 48° |
| 2026-04-21 16:50 | -17.35658 | -93.72260 | 37130 ft | 561 kts | 48° |
| 2026-04-21 16:50 | -17.30731 | -93.65928 | 37128 ft | 561 kts | 48° |
| 2026-04-21 16:51 | -17.25799 | -93.59596 | 37125 ft | 561 kts | 48° |
| 2026-04-21 16:51 | -17.20870 | -93.53273 | 37125 ft | 561 kts | 48° |
| 2026-04-21 16:52 | -17.15933 | -93.46946 | 37125 ft | 560 kts | 48° |
| 2026-04-21 16:52 | -17.11830 | -93.41692 | 37141 ft | 560 kts | 48° |
| 2026-04-21 16:53 | -17.06062 | -93.34314 | 37120 ft | 560 kts | 48° |
| 2026-04-21 16:53 | -17.01160 | -93.28050 | 37114 ft | 560 kts | 48° |
| 2026-04-21 16:54 | -16.96229 | -93.21753 | 37132 ft | 560 kts | 48° |
| 2026-04-21 16:54 | -16.91294 | -93.15458 | 37130 ft | 560 kts | 48° |
| 2026-04-21 16:55 | -16.86356 | -93.09165 | 37105 ft | 560 kts | 48° |
| 2026-04-21 16:55 | -16.81416 | -93.02875 | 37124 ft | 560 kts | 48° |
| 2026-04-21 16:56 | -16.76480 | -92.96594 | 37119 ft | 560 kts | 48° |
| 2026-04-21 16:56 | -16.71540 | -92.90316 | 37117 ft | 559 kts | 48° |
| 2026-04-21 16:57 | -16.67431 | -92.85097 | 37117 ft | 559 kts | 48° |
| 2026-04-21 16:57 | -16.62494 | -92.78833 | 37117 ft | 559 kts | 48° |
| 2026-04-21 16:58 | -16.57549 | -92.72564 | 37118 ft | 559 kts | 48° |
| 2026-04-21 16:58 | -16.52607 | -92.66304 | 37119 ft | 559 kts | 48° |
| 2026-04-21 16:59 | -16.47660 | -92.60043 | 37114 ft | 559 kts | 48° |
| 2026-04-21 16:59 | -16.42718 | -92.53794 | 37117 ft | 559 kts | 48° |
| 2026-04-21 17:00 | -16.37767 | -92.47540 | 37114 ft | 559 kts | 48° |
| 2026-04-21 17:00 | -16.33653 | -92.42347 | 37114 ft | 559 kts | 48° |
| 2026-04-21 17:01 | -16.27856 | -92.35035 | 37117 ft | 559 kts | 48° |
| 2026-04-21 17:01 | -16.22934 | -92.28834 | 37107 ft | 559 kts | 48° |
| 2026-04-21 17:02 | -16.17984 | -92.22601 | 37114 ft | 559 kts | 48° |
| 2026-04-21 17:02 | -16.13027 | -92.16366 | 37112 ft | 559 kts | 48° |
| 2026-04-21 17:03 | -16.08108 | -92.10183 | 37112 ft | 559 kts | 48° |
| 2026-04-21 17:03 | -16.03188 | -92.04002 | 37109 ft | 559 kts | 48° |
| 2026-04-21 17:04 | -15.98140 | -91.97940 | 37106 ft | 557 kts | 43° |
| 2026-04-21 17:04 | -15.92661 | -91.92248 | 37107 ft | 556 kts | 41° |
| 2026-04-21 17:05 | -15.87143 | -91.86620 | 37113 ft | 556 kts | 42° |
| 2026-04-21 17:05 | -15.81635 | -91.80959 | 37103 ft | 557 kts | 42° |
| 2026-04-21 17:06 | -15.76174 | -91.75306 | 37101 ft | 556 kts | 42° |
| 2026-04-21 17:06 | -15.70759 | -91.69691 | 37099 ft | 556 kts | 42° |
| 2026-04-21 17:07 | -15.65273 | -91.64011 | 37111 ft | 556 kts | 42° |
| 2026-04-21 17:07 | -15.59793 | -91.58347 | 37101 ft | 556 kts | 42° |
| 2026-04-21 17:08 | -15.54313 | -91.52689 | 37096 ft | 556 kts | 42° |
| 2026-04-21 17:08 | -15.48829 | -91.47030 | 37106 ft | 556 kts | 42° |
| 2026-04-21 17:09 | -15.40608 | -91.38555 | 37096 ft | 555 kts | 42° |
| 2026-04-21 17:09 | -15.35178 | -91.32963 | 37099 ft | 555 kts | 42° |
| 2026-04-21 17:10 | -15.29699 | -91.27325 | 37094 ft | 555 kts | 42° |
| 2026-04-21 17:10 | -15.24253 | -91.21724 | 37096 ft | 555 kts | 42° |
| 2026-04-21 17:11 | -15.18777 | -91.16098 | 37094 ft | 555 kts | 42° |
| 2026-04-21 17:11 | -15.13295 | -91.10471 | 37092 ft | 554 kts | 42° |
| 2026-04-21 17:12 | -15.07814 | -91.04847 | 37091 ft | 554 kts | 42° |
| 2026-04-21 17:12 | -15.02334 | -90.99230 | 37091 ft | 554 kts | 42° |
| 2026-04-21 17:13 | -14.96859 | -90.93622 | 37092 ft | 554 kts | 42° |
| 2026-04-21 17:13 | -14.91383 | -90.88018 | 37088 ft | 554 kts | 42° |
| 2026-04-21 17:14 | -14.85906 | -90.82416 | 37088 ft | 554 kts | 42° |
| 2026-04-21 17:14 | -14.80460 | -90.76850 | 37087 ft | 554 kts | 43° |
| 2026-04-21 17:15 | -14.74982 | -90.71256 | 37087 ft | 553 kts | 43° |
| 2026-04-21 17:15 | -14.69504 | -90.65666 | 37087 ft | 553 kts | 43° |
| 2026-04-21 17:16 | -14.64025 | -90.60079 | 37083 ft | 553 kts | 43° |
| 2026-04-21 17:16 | -14.58549 | -90.54499 | 37086 ft | 553 kts | 43° |
| 2026-04-21 17:17 | -14.53065 | -90.48916 | 37080 ft | 553 kts | 43° |
| 2026-04-21 17:17 | -14.47590 | -90.43345 | 37082 ft | 553 kts | 43° |
| 2026-04-21 17:18 | -14.42110 | -90.37774 | 37080 ft | 553 kts | 43° |
| 2026-04-21 17:18 | -14.36659 | -90.32236 | 37078 ft | 553 kts | 43° |
| 2026-04-21 17:19 | -14.31177 | -90.26670 | 37076 ft | 553 kts | 43° |
| 2026-04-21 17:19 | -14.25696 | -90.21110 | 37074 ft | 553 kts | 43° |
| 2026-04-21 17:20 | -14.20214 | -90.15553 | 37073 ft | 553 kts | 43° |
| 2026-04-21 17:20 | -14.14732 | -90.10000 | 37072 ft | 552 kts | 43° |
| 2026-04-21 17:21 | -14.09248 | -90.04449 | 37073 ft | 552 kts | 43° |
| 2026-04-21 17:21 | -14.03771 | -89.98908 | 37076 ft | 552 kts | 43° |
| 2026-04-21 17:22 | -13.98288 | -89.93365 | 37075 ft | 552 kts | 43° |
| 2026-04-21 17:22 | -13.92808 | -89.87830 | 37078 ft | 552 kts | 43° |
| 2026-04-21 17:23 | -13.87364 | -89.82335 | 37071 ft | 551 kts | 43° |
| 2026-04-21 17:23 | -13.81885 | -89.76808 | 37074 ft | 551 kts | 43° |
| 2026-04-21 17:24 | -13.76407 | -89.71286 | 37071 ft | 551 kts | 43° |
| 2026-04-21 17:24 | -13.70931 | -89.65769 | 37073 ft | 551 kts | 43° |
| 2026-04-21 17:25 | -13.65450 | -89.60253 | 37068 ft | 551 kts | 43° |
| 2026-04-21 17:25 | -13.59975 | -89.54745 | 37070 ft | 550 kts | 43° |
| 2026-04-21 17:26 | -13.54495 | -89.49236 | 37068 ft | 550 kts | 43° |
| 2026-04-21 17:26 | -13.49052 | -89.43768 | 37065 ft | 550 kts | 43° |
| 2026-04-21 17:27 | -13.43577 | -89.38272 | 37065 ft | 550 kts | 43° |
| 2026-04-21 17:27 | -13.38100 | -89.32777 | 37064 ft | 550 kts | 43° |
| 2026-04-21 17:28 | -13.32632 | -89.27295 | 37063 ft | 550 kts | 43° |
| 2026-04-21 17:28 | -13.27149 | -89.21802 | 37064 ft | 550 kts | 43° |
| 2026-04-21 17:29 | -13.21671 | -89.16317 | 37064 ft | 549 kts | 43° |
| 2026-04-21 17:29 | -13.16237 | -89.10881 | 37063 ft | 549 kts | 43° |
| 2026-04-21 17:30 | -13.10801 | -89.05445 | 37061 ft | 549 kts | 43° |
| 2026-04-21 17:30 | -13.05327 | -88.99975 | 37062 ft | 549 kts | 43° |
| 2026-04-21 17:31 | -12.99858 | -88.94514 | 37059 ft | 548 kts | 43° |
| 2026-04-21 17:31 | -12.94395 | -88.89062 | 37059 ft | 548 kts | 43° |
| 2026-04-21 17:32 | -12.88927 | -88.83609 | 37059 ft | 548 kts | 43° |
| 2026-04-21 17:32 | -12.83470 | -88.78170 | 37056 ft | 547 kts | 43° |
| 2026-04-21 17:33 | -12.78011 | -88.72733 | 37057 ft | 547 kts | 43° |
| 2026-04-21 17:33 | -12.72559 | -88.67306 | 37058 ft | 547 kts | 43° |
| 2026-04-21 17:34 | -12.67104 | -88.61880 | 37058 ft | 546 kts | 43° |
| 2026-04-21 17:34 | -12.61653 | -88.56460 | 37056 ft | 546 kts | 43° |
| 2026-04-21 17:35 | -12.56240 | -88.51082 | 37053 ft | 546 kts | 43° |
| 2026-04-21 17:35 | -12.50797 | -88.45678 | 37047 ft | 545 kts | 43° |
| 2026-04-21 17:36 | -12.45353 | -88.40277 | 37064 ft | 545 kts | 43° |
| 2026-04-21 17:36 | -12.39905 | -88.34874 | 37062 ft | 544 kts | 43° |
| 2026-04-21 17:37 | -12.34472 | -88.29490 | 37054 ft | 544 kts | 43° |
| 2026-04-21 17:37 | -12.29037 | -88.24106 | 37039 ft | 543 kts | 43° |
| 2026-04-21 17:38 | -12.23636 | -88.18760 | 37046 ft | 543 kts | 43° |
| 2026-04-21 17:38 | -12.18210 | -88.13392 | 37049 ft | 542 kts | 43° |
| 2026-04-21 17:39 | -12.12790 | -88.08033 | 37040 ft | 542 kts | 43° |
| 2026-04-21 17:39 | -12.07373 | -88.02681 | 37044 ft | 541 kts | 43° |
| 2026-04-21 17:40 | -12.01960 | -87.97336 | 37045 ft | 540 kts | 43° |
| 2026-04-21 17:40 | -11.96552 | -87.91998 | 37050 ft | 540 kts | 43° |
| 2026-04-21 17:41 | -11.91155 | -87.86675 | 37050 ft | 539 kts | 43° |
| 2026-04-21 17:41 | -11.85755 | -87.81352 | 37045 ft | 539 kts | 43° |
| 2026-04-21 17:42 | -11.80391 | -87.76068 | 37038 ft | 539 kts | 43° |
| 2026-04-21 17:42 | -11.74966 | -87.70726 | 37041 ft | 538 kts | 43° |
| 2026-04-21 17:43 | -11.69613 | -87.65458 | 37043 ft | 538 kts | 43° |
| 2026-04-21 17:43 | -11.64221 | -87.60155 | 37037 ft | 537 kts | 43° |
| 2026-04-21 17:44 | -11.58843 | -87.54869 | 37042 ft | 537 kts | 43° |
| 2026-04-21 17:44 | -11.53467 | -87.49588 | 37037 ft | 536 kts | 43° |
| 2026-04-21 17:45 | -11.48099 | -87.44317 | 37037 ft | 536 kts | 43° |
| 2026-04-21 17:45 | -11.43639 | -87.39940 | 37038 ft | 535 kts | 43° |
| 2026-04-21 17:46 | -11.38270 | -87.34674 | 37036 ft | 535 kts | 43° |
| 2026-04-21 17:46 | -11.32909 | -87.29418 | 37035 ft | 534 kts | 43° |
| 2026-04-21 17:47 | -11.27583 | -87.24200 | 37034 ft | 534 kts | 43° |
| 2026-04-21 17:47 | -11.22226 | -87.18955 | 37030 ft | 533 kts | 43° |
| 2026-04-21 17:48 | -11.16882 | -87.13724 | 37028 ft | 532 kts | 43° |
| 2026-04-21 17:48 | -11.11542 | -87.08501 | 37020 ft | 532 kts | 43° |
| 2026-04-21 17:49 | -11.06232 | -87.03309 | 37026 ft | 531 kts | 43° |
| 2026-04-21 17:49 | -11.00868 | -86.98068 | 37025 ft | 531 kts | 43° |
| 2026-04-21 17:50 | -10.95576 | -86.92899 | 37029 ft | 530 kts | 43° |
| 2026-04-21 17:50 | -10.90254 | -86.87705 | 37026 ft | 530 kts | 43° |
| 2026-04-21 17:51 | -10.84935 | -86.82516 | 37028 ft | 530 kts | 43° |
| 2026-04-21 17:51 | -10.79620 | -86.77333 | 37028 ft | 529 kts | 43° |
| 2026-04-21 17:52 | -10.74296 | -86.72144 | 37023 ft | 529 kts | 43° |
| 2026-04-21 17:52 | -10.68979 | -86.66965 | 37029 ft | 529 kts | 43° |
| 2026-04-21 17:53 | -10.63673 | -86.61799 | 37024 ft | 528 kts | 43° |
| 2026-04-21 17:53 | -10.58361 | -86.56630 | 37021 ft | 528 kts | 43° |
| 2026-04-21 17:54 | -10.53088 | -86.51501 | 37023 ft | 528 kts | 42° |
| 2026-04-21 17:54 | -10.47782 | -86.46343 | 37015 ft | 527 kts | 42° |
| 2026-04-21 17:55 | -10.42482 | -86.41193 | 37020 ft | 526 kts | 42° |
| 2026-04-21 17:55 | -10.37191 | -86.36055 | 37019 ft | 526 kts | 42° |
| 2026-04-21 17:56 | -10.31906 | -86.30925 | 37012 ft | 525 kts | 42° |
| 2026-04-21 17:56 | -10.26627 | -86.25802 | 37013 ft | 524 kts | 42° |
| 2026-04-21 17:57 | -10.21350 | -86.20685 | 37011 ft | 523 kts | 42° |
| 2026-04-21 17:57 | -10.16116 | -86.15611 | 37012 ft | 522 kts | 42° |
| 2026-04-21 17:58 | -10.10866 | -86.10523 | 37013 ft | 521 kts | 42° |
| 2026-04-21 17:58 | -10.05620 | -86.05442 | 37011 ft | 520 kts | 42° |
| 2026-04-21 17:59 | -10.00393 | -86.00372 | 37010 ft | 519 kts | 43° |
| 2026-04-21 17:59 | -9.95497 | -85.94975 | 37015 ft | 519 kts | 47° |
| 2026-04-21 18:00 | -9.90743 | -85.89465 | 37011 ft | 518 kts | 47° |
| 2026-04-21 18:00 | -9.86875 | -85.84985 | 37010 ft | 517 kts | 47° |
| 2026-04-21 18:01 | -9.82120 | -85.79516 | 37007 ft | 516 kts | 47° |
| 2026-04-21 18:01 | -9.77363 | -85.74074 | 37006 ft | 515 kts | 47° |
| 2026-04-21 18:02 | -9.72611 | -85.68641 | 37005 ft | 514 kts | 47° |
| 2026-04-21 18:02 | -9.67869 | -85.63223 | 37007 ft | 513 kts | 47° |
| 2026-04-21 18:03 | -9.63133 | -85.57810 | 37006 ft | 512 kts | 46° |
| 2026-04-21 18:03 | -9.58410 | -85.52414 | 36999 ft | 511 kts | 46° |
| 2026-04-21 18:04 | -9.53690 | -85.47025 | 37003 ft | 511 kts | 46° |
| 2026-04-21 18:04 | -9.48976 | -85.41645 | 37009 ft | 510 kts | 46° |
| 2026-04-21 18:05 | -9.44295 | -85.36304 | 37004 ft | 510 kts | 46° |
| 2026-04-21 18:05 | -9.39592 | -85.30942 | 37000 ft | 509 kts | 46° |
| 2026-04-21 18:06 | -9.34892 | -85.25585 | 36999 ft | 509 kts | 46° |
| 2026-04-21 18:06 | -9.30190 | -85.20228 | 37002 ft | 508 kts | 46° |
| 2026-04-21 18:07 | -9.25487 | -85.14872 | 37000 ft | 508 kts | 46° |
| 2026-04-21 18:07 | -9.20791 | -85.09528 | 37005 ft | 508 kts | 46° |
| 2026-04-21 18:08 | -9.16128 | -85.04222 | 36996 ft | 507 kts | 46° |
| 2026-04-21 18:08 | -9.11023 | -84.99366 | 37017 ft | 502 kts | 34° |
| 2026-04-21 18:09 | -9.05231 | -84.95405 | 36998 ft | 502 kts | 31° |
| 2026-04-21 18:09 | -8.99411 | -84.91486 | 36996 ft | 502 kts | 32° |
| 2026-04-21 18:10 | -8.93686 | -84.87405 | 36997 ft | 503 kts | 34° |
| 2026-04-21 18:10 | -8.88026 | -84.83239 | 36993 ft | 503 kts | 34° |
| 2026-04-21 18:11 | -8.82382 | -84.79062 | 36991 ft | 503 kts | 34° |
| 2026-04-21 18:11 | -8.76772 | -84.74922 | 36988 ft | 502 kts | 34° |
| 2026-04-21 18:12 | -8.71126 | -84.70769 | 36990 ft | 501 kts | 34° |
| 2026-04-21 18:12 | -8.65484 | -84.66623 | 36992 ft | 501 kts | 34° |
| 2026-04-21 18:13 | -8.59849 | -84.62483 | 36990 ft | 500 kts | 34° |
| 2026-04-21 18:13 | -8.54227 | -84.58354 | 36986 ft | 499 kts | 34° |
| 2026-04-21 18:14 | -8.45830 | -84.52188 | 37005 ft | 498 kts | 34° |
| 2026-04-21 18:15 | -8.40221 | -84.48073 | 36990 ft | 498 kts | 34° |
| 2026-04-21 18:15 | -8.34610 | -84.43956 | 36986 ft | 499 kts | 34° |
| 2026-04-21 18:16 | -8.28986 | -84.39832 | 36985 ft | 500 kts | 34° |
| 2026-04-21 18:16 | -8.23351 | -84.35702 | 37001 ft | 501 kts | 34° |
| 2026-04-21 18:17 | -8.17703 | -84.31563 | 36996 ft | 502 kts | 34° |
| 2026-04-21 18:17 | -8.12043 | -84.27417 | 36980 ft | 503 kts | 34° |
| 2026-04-21 18:18 | -8.06377 | -84.23268 | 36978 ft | 503 kts | 34° |
| 2026-04-21 18:18 | -8.00735 | -84.19137 | 36995 ft | 504 kts | 34° |
| 2026-04-21 18:19 | -7.95055 | -84.14981 | 36993 ft | 504 kts | 34° |
| 2026-04-21 18:19 | -7.89364 | -84.10818 | 36979 ft | 505 kts | 34° |
| 2026-04-21 18:20 | -7.83681 | -84.06662 | 36975 ft | 505 kts | 34° |
| 2026-04-21 18:20 | -7.77988 | -84.02501 | 36975 ft | 505 kts | 34° |
| 2026-04-21 18:21 | -7.72296 | -83.98342 | 36992 ft | 505 kts | 34° |
| 2026-04-21 18:21 | -7.66601 | -83.94182 | 36991 ft | 505 kts | 34° |
| 2026-04-21 18:22 | -7.60905 | -83.90022 | 36975 ft | 505 kts | 35° |
| 2026-04-21 18:22 | -7.55243 | -83.85888 | 36974 ft | 505 kts | 35° |
| 2026-04-21 18:23 | -7.49553 | -83.81736 | 36987 ft | 504 kts | 35° |
| 2026-04-21 18:23 | -7.43876 | -83.77594 | 36990 ft | 504 kts | 35° |
| 2026-04-21 18:24 | -7.38202 | -83.73457 | 36986 ft | 503 kts | 35° |
| 2026-04-21 18:24 | -7.32539 | -83.69328 | 36969 ft | 502 kts | 35° |
| 2026-04-21 18:25 | -7.26878 | -83.65202 | 36967 ft | 502 kts | 35° |
| 2026-04-21 18:25 | -7.21226 | -83.61084 | 36982 ft | 501 kts | 35° |
| 2026-04-21 18:26 | -7.15576 | -83.56969 | 36986 ft | 501 kts | 35° |
| 2026-04-21 18:26 | -7.09926 | -83.52856 | 36963 ft | 501 kts | 35° |
| 2026-04-21 18:27 | -7.04320 | -83.48776 | 36980 ft | 500 kts | 35° |
| 2026-04-21 18:27 | -6.98681 | -83.44671 | 36982 ft | 500 kts | 35° |
| 2026-04-21 18:28 | -6.93030 | -83.40560 | 36981 ft | 500 kts | 36° |
| 2026-04-21 18:28 | -6.87379 | -83.36451 | 36966 ft | 500 kts | 36° |
| 2026-04-21 18:29 | -6.81762 | -83.32367 | 36977 ft | 500 kts | 36° |
| 2026-04-21 18:29 | -6.76111 | -83.28260 | 36980 ft | 500 kts | 36° |
| 2026-04-21 18:30 | -6.70465 | -83.24158 | 36978 ft | 500 kts | 36° |
| 2026-04-21 18:30 | -6.64819 | -83.20057 | 36978 ft | 500 kts | 36° |
| 2026-04-21 18:31 | -6.59168 | -83.15953 | 36964 ft | 500 kts | 36° |
| 2026-04-21 18:31 | -6.53524 | -83.11856 | 36961 ft | 500 kts | 36° |
| 2026-04-21 18:32 | -6.47985 | -83.07836 | 36965 ft | 499 kts | 36° |
| 2026-04-21 18:32 | -6.42359 | -83.03754 | 36981 ft | 498 kts | 36° |